Bloomington, IL

6:16 PM CST on March 03, 2015 (GMT -0600)
Greater Peoria Regional | Change Station
CLOSE
Current Station
Airport
Location: Peoria,
Elevation: 663 ft
Nearby Weather Stations

Elev 663 ft 40.67 °N, 89.68 °W | Updated 22 minutes ago

Fog
Fog
37 °F
Feels Like 31 °F
N
8
Wind Variable Wind from WNW

Today
High -- | Low -- °F
--% Chance of Precip.
Yesterday
High -- | Low -- °F
Precip. -- in
6:27 AM 5:49 PM
Waxing Gibbous, 97% visible
Pressure 29.82 in
Visibility 10.0 miles
Clouds Overcast 2400 ft
Windchill 31 °F
Dew Point 30 °F
Humidity 76%
Rainfall 0.08 in
Snow Depth Not available.
UV 0 out of 12
Pollen .50 out of 12
Air Quality Not available.
Flu Activity Not available.
METAR KPIA 032354Z 30007KT 10SM OVC024 03/M01 A2980 RMK AO2 SLP098 T00281011 10039 20017 51020

More Conditions Fewer Conditions

Pressure 29.82 in
Visibility 10.0 miles
Clouds Overcast 2400 ft
Windchill 31 °F
Dew Point 30 °F
Humidity 76%
Rainfall 0.08 in
Snow Depth Not available.
UV 0 out of 12
Pollen .50 out of 12
Air Quality Not available.
Flu Activity Not available.
METAR KPIA 032354Z 30007KT 10SM OVC024 03/M01 A2980 RMK AO2 SLP098 T00281011 10039 20017 51020

More Conditions Fewer Conditions

10-Day Weather Forecast

Almanac

Astronomy

Mar. 03, 2015 Rise Set
Actual Time
Civil Twilight
Nautical Twilight
Astronomical Twilight
Moon
Length of Visible Light
Length of Day
Tomorrow will be .
, % of the Moon is Illuminated

Today's Extremes

State Highs State Lows

Community

WunderPhotos

Upload Photos

1,802,330 photos uploaded!

WunderBlogs® & News

Nearby

Air Quality

  Air Quality AQ Index Pollutant
Not available.

Snow Depth

Station Depth Elevation

Earthquake Activity

City Distance Mag. Time & Date
Minimum magnitude displayed is 2.5.

Coastal Water Temperatures

Place Temperature

Nearby Weather Stations